Главная страница
METAR-TAF:

METAR-TAF

Аэропорты :

Бурленге, Швеция

широта: 60-26N, долгота: 015-31E, высота над уровнем моря: 145 м

Текущие метеонаблюдения

Эта сводка был подготовлена 27 минут назад, в 09:20 UTC
Ветер 8 Узел от западный-юго-западный
Температура 20°C
Влажность 68%
Давление 1018 hPa
Видимость 10 км и более
небольшая облачность на высоте 2500 фута
Рассеянная облачность на высоте 3300 фута

METAR: ESSD 060920Z 25008KT 9999 FEW025 BKN033 20/14 Q1018

Время: 11:47 (09:47 UTC)

Прогноз

Эта сводка был подготовлена 1 час и 17 минут назад, в 08:30 UTC
Прогноз действительный с 06-го 09 UTC до 06-го 13 UTC
Ветер 8 Узел от юго-западный
Видимость 10 км и более
Рассеянная облачность на высоте 2500 фута

TAF: ESSD 060830Z 0609/0613 23008KT 9999 BKN025

Метеонаблюдения и прогнозы для более 4000 аэропортов (сводки METAR и TAF).

Имеющиеся станции представлены на карте желтыми и красными точками.

Чтобы увидеть название станции, наведите на нее мышь.

Затем щелкните, чтобы увидеть метеонаблюдения и метеопрогнозы.

Управление картой: чтобы увеличить масштаб, щелкните зеленые кнопки с черным крестиком; чтобы уменьшить масштаб, щелкните зеленую кнопку с тире; для просмотра соседних карт щелкайте зеленые стрелки.


METAR-TAF: